Time;durP1;ratioP1;P1;durP2;ratioP2;P2;SDS_P1;SDS_P2;PMS_P1;PMS_P2;Temp;Humidity;BMP_temperature;BMP_pressure;BME280_temperature;BME280_humidity;BME280_pressure;Samples;Min_cycle;Max_cycle;Signal;HPM_P1;HPM_P2
2023/01/14 00:01:33;;;;;;;1.73;1.27;;;;;;;;;;5093536;28;20320;-36
2023/01/14 00:04:01;;;;;;;2.53;1.30;;;;;;;;;;5082904;28;20271;-36
2023/01/14 00:06:29;;;;;;;3.47;1.23;;;;;;;;;;5077680;28;20359;-33
2023/01/14 00:08:56;;;;;;;2.13;1.50;;;;;;;;;;5084306;28;20204;-35
2023/01/14 00:11:45;;;;;;;3.37;1.57;;;;;;;;;;5095627;28;20231;-38
2023/01/14 00:14:12;;;;;;;3.33;1.90;;;;;;;;;;5082453;28;20322;-33
2023/01/14 00:16:40;;;;;;;2.67;1.47;;;;;;;;;;5086605;28;20208;-38
2023/01/14 00:19:09;;;;;;;1.80;1.23;;;;;;;;;;5085222;28;20211;-32
2023/01/14 00:21:36;;;;;;;3.20;1.20;;;;;;;;;;5081178;28;20238;-36
2023/01/14 00:24:03;;;;;;;4.27;1.50;;;;;;;;;;5075671;28;20208;-36
2023/01/14 00:26:31;;;;;;;2.83;1.17;;;;;;;;;;5080933;28;20213;-41
2023/01/14 00:28:58;;;;;;;2.00;1.30;;;;;;;;;;5082924;28;20270;-34
2023/01/14 00:31:26;;;;;;;3.80;1.20;;;;;;;;;;5083632;28;20225;-32
2023/01/14 00:33:55;;;;;;;2.67;1.30;;;;;;;;;;5081847;28;20232;-37
2023/01/14 00:36:23;;;;;;;1.53;1.20;;;;;;;;;;5078028;28;20216;-38
2023/01/14 00:38:50;;;;;;;2.97;1.20;;;;;;;;;;5081834;28;20216;-33
2023/01/14 00:41:18;;;;;;;2.60;1.47;;;;;;;;;;5085852;28;20228;-34
2023/01/14 00:43:46;;;;;;;2.10;1.13;;;;;;;;;;5079602;28;20215;-40
2023/01/14 00:46:14;;;;;;;1.77;1.23;;;;;;;;;;5083114;28;20201;-33
2023/01/14 00:48:41;;;;;;;3.43;1.40;;;;;;;;;;5083632;28;20216;-39
2023/01/14 00:51:10;;;;;;;4.90;1.10;;;;;;;;;;5083809;28;20231;-37
2023/01/14 00:53:37;;;;;;;2.67;1.17;;;;;;;;;;5081974;28;20228;-35
2023/01/14 00:56:05;;;;;;;1.43;1.13;;;;;;;;;;5090822;28;20200;-31
2023/01/14 00:58:32;;;;;;;3.23;1.10;;;;;;;;;;5077349;28;20205;-35
2023/01/14 01:00:59;;;;;;;2.63;1.27;;;;;;;;;;5092021;28;20316;-36
2023/01/14 01:03:26;;;;;;;3.73;1.20;;;;;;;;;;5092815;28;20204;-37
2023/01/14 01:05:53;;;;;;;1.93;1.20;;;;;;;;;;5086508;28;20205;-33
2023/01/14 01:08:22;;;;;;;2.77;1.13;;;;;;;;;;5088751;28;20202;-35
2023/01/14 01:10:51;;;;;;;3.03;1.00;;;;;;;;;;5105855;28;20207;-38
2023/01/14 01:13:19;;;;;;;3.47;1.30;;;;;;;;;;5090199;28;20220;-33
2023/01/14 01:15:46;;;;;;;0.87;0.83;;;;;;;;;;5092421;28;20200;-39
2023/01/14 01:18:14;;;;;;;4.07;1.17;;;;;;;;;;5093938;28;20209;-34
2023/01/14 01:20:42;;;;;;;2.90;1.30;;;;;;;;;;5089178;28;20289;-36
2023/01/14 01:23:10;;;;;;;4.87;1.40;;;;;;;;;;5083960;28;20197;-36
2023/01/14 01:25:39;;;;;;;1.40;1.10;;;;;;;;;;5093873;28;20320;-34
2023/01/14 01:28:06;;;;;;;5.23;1.10;;;;;;;;;;5091016;28;20210;-35
2023/01/14 01:30:34;;;;;;;2.00;1.10;;;;;;;;;;5088317;28;20212;-34
2023/01/14 01:33:01;;;;;;;2.37;0.90;;;;;;;;;;5095929;28;20232;-36
2023/01/14 01:35:29;;;;;;;2.80;1.23;;;;;;;;;;5079729;28;20209;-37
2023/01/14 01:37:56;;;;;;;1.90;1.00;;;;;;;;;;5088345;28;20196;-35
2023/01/14 01:40:24;;;;;;;3.00;1.00;;;;;;;;;;5085459;28;20217;-37
2023/01/14 01:42:58;;;;;;;5.30;1.00;;;;;;;;;;5092315;28;20220;-32
2023/01/14 01:45:43;;;;;;;1.70;1.30;;;;;;;;;;5086939;28;20216;-34
2023/01/14 01:48:12;;;;;;;2.67;0.90;;;;;;;;;;5097347;28;20642;-35
2023/01/14 01:50:39;;;;;;;4.60;1.30;;;;;;;;;;5090865;28;20212;-35
2023/01/14 01:53:07;;;;;;;2.57;0.90;;;;;;;;;;5082163;28;20232;-36
2023/01/14 01:55:36;;;;;;;1.53;1.20;;;;;;;;;;5100575;28;20196;-30
2023/01/14 01:58:05;;;;;;;1.63;1.00;;;;;;;;;;5091215;28;20209;-39
2023/01/14 02:00:32;;;;;;;3.83;1.30;;;;;;;;;;5093894;28;20216;-34
2023/01/14 02:03:01;;;;;;;2.07;1.00;;;;;;;;;;5092152;28;20208;-34
2023/01/14 02:05:28;;;;;;;2.20;1.13;;;;;;;;;;5093296;28;20220;-37
2023/01/14 02:07:57;;;;;;;3.27;1.00;;;;;;;;;;5072436;28;20209;-35
2023/01/14 02:10:26;;;;;;;5.10;1.20;;;;;;;;;;5080984;28;20213;-36
2023/01/14 02:13:02;;;;;;;3.17;0.90;;;;;;;;;;5079099;28;20225;-40
2023/01/14 02:15:38;;;;;;;1.80;0.93;;;;;;;;;;5092047;28;20208;-34
2023/01/14 02:18:11;;;;;;;4.57;1.20;;;;;;;;;;5071113;28;20201;-32
2023/01/14 02:20:40;;;;;;;0.80;0.70;;;;;;;;;;5085268;28;20208;-42
2023/01/14 02:23:26;;;;;;;1.97;1.23;;;;;;;;;;5074402;28;20209;-34
2023/01/14 02:26:19;;;;;;;3.07;1.53;;;;;;;;;;5089141;28;20208;-38
2023/01/14 02:28:56;;;;;;;4.13;1.03;;;;;;;;;;5071428;28;20201;-35
2023/01/14 02:31:27;;;;;;;2.67;1.20;;;;;;;;;;5086033;28;20228;-37
2023/01/14 02:33:56;;;;;;;3.40;1.10;;;;;;;;;;5083167;28;20236;-33
2023/01/14 02:36:28;;;;;;;3.03;1.03;;;;;;;;;;5073449;28;20212;-38
2023/01/14 02:39:01;;;;;;;3.07;1.00;;;;;;;;;;5078736;28;20200;-37
2023/01/14 02:44:17;;;;;;;3.70;1.30;;;;;;;;;;5084007;28;20276;-37
2023/01/14 02:46:47;;;;;;;2.90;0.70;;;;;;;;;;5102086;28;20200;-32
2023/01/14 02:49:15;;;;;;;1.93;0.97;;;;;;;;;;5094689;28;20196;-37
2023/01/14 02:51:43;;;;;;;2.37;1.00;;;;;;;;;;5084515;28;20233;-35
2023/01/14 02:54:10;;;;;;;2.00;1.10;;;;;;;;;;5093102;28;20220;-31
2023/01/14 02:56:37;;;;;;;1.80;1.03;;;;;;;;;;5093139;28;20383;-38
2023/01/14 02:59:16;;;;;;;1.30;0.80;;;;;;;;;;5079011;28;20208;-38
2023/01/14 03:01:56;;;;;;;4.37;0.80;;;;;;;;;;5103883;28;20290;-37
2023/01/14 03:04:30;;;;;;;3.83;1.10;;;;;;;;;;5093705;28;20207;-38
2023/01/14 03:07:03;;;;;;;1.63;0.80;;;;;;;;;;5090655;28;20285;-35
2023/01/14 03:09:34;;;;;;;4.93;1.30;;;;;;;;;;5087739;28;20207;-35
2023/01/14 03:12:05;;;;;;;2.30;0.77;;;;;;;;;;5090215;28;20220;-41
2023/01/14 03:14:34;;;;;;;4.30;0.90;;;;;;;;;;5086625;28;20229;-36
2023/01/14 03:17:05;;;;;;;1.67;1.00;;;;;;;;;;5097743;28;20207;-40
2023/01/14 03:19:34;;;;;;;4.10;1.10;;;;;;;;;;5089794;28;20208;-34
2023/01/14 03:22:03;;;;;;;0.80;0.60;;;;;;;;;;5081749;28;20231;-34
2023/01/14 03:24:32;;;;;;;3.80;1.20;;;;;;;;;;5085303;28;20196;-34
2023/01/14 03:27:04;;;;;;;1.87;0.80;;;;;;;;;;5106430;28;20201;-37
2023/01/14 03:29:34;;;;;;;6.00;1.43;;;;;;;;;;5083341;28;20205;-35
2023/01/14 03:32:03;;;;;;;2.73;0.90;;;;;;;;;;5107432;28;20223;-41
2023/01/14 03:34:35;;;;;;;1.13;0.80;;;;;;;;;;5095682;28;20221;-36
2023/01/14 03:37:03;;;;;;;2.23;1.00;;;;;;;;;;5096483;28;20557;-34
2023/01/14 03:39:30;;;;;;;7.37;1.40;;;;;;;;;;5083168;28;20220;-36
2023/01/14 03:44:51;;;;;;;2.63;0.87;;;;;;;;;;5087263;28;20216;-40
2023/01/14 03:47:19;;;;;;;2.43;1.00;;;;;;;;;;5097034;28;20204;-38
2023/01/14 03:49:47;;;;;;;3.10;1.13;;;;;;;;;;5092136;28;20203;-33
2023/01/14 03:52:16;;;;;;;1.93;0.97;;;;;;;;;;5087849;28;20225;-35
2023/01/14 03:54:46;;;;;;;2.23;1.00;;;;;;;;;;5085680;28;20224;-30
2023/01/14 03:57:17;;;;;;;2.43;1.00;;;;;;;;;;5092742;28;20196;-37
2023/01/14 03:59:47;;;;;;;1.73;1.00;;;;;;;;;;5090199;28;20196;-35
2023/01/14 04:02:15;;;;;;;3.20;1.10;;;;;;;;;;5108480;28;20219;-33
2023/01/14 04:04:43;;;;;;;6.07;1.27;;;;;;;;;;5093663;27;20200;-41
2023/01/14 04:07:11;;;;;;;2.57;0.80;;;;;;;;;;5083524;28;20212;-31
2023/01/14 04:09:38;;;;;;;3.00;1.50;;;;;;;;;;5084445;28;20197;-34
2023/01/14 04:12:06;;;;;;;6.57;1.17;;;;;;;;;;5111455;28;20223;-31
2023/01/14 04:17:18;;;;;;;2.93;1.00;;;;;;;;;;5100322;28;20306;-31
2023/01/14 04:19:45;;;;;;;3.07;1.07;;;;;;;;;;5112718;28;20203;-33
2023/01/14 04:22:13;;;;;;;5.30;1.17;;;;;;;;;;5088350;28;20217;-34
2023/01/14 04:24:40;;;;;;;3.43;0.90;;;;;;;;;;5084778;28;20205;-38
2023/01/14 04:27:07;;;;;;;3.10;1.30;;;;;;;;;;5112308;28;20196;-39
2023/01/14 04:29:34;;;;;;;2.37;1.00;;;;;;;;;;5093809;27;20211;-40
2023/01/14 04:32:02;;;;;;;1.13;1.00;;;;;;;;;;5097013;28;20232;-38
2023/01/14 04:34:29;;;;;;;3.10;0.60;;;;;;;;;;5112704;27;20216;-37
2023/01/14 04:36:56;;;;;;;2.00;0.77;;;;;;;;;;5086634;28;20200;-38
2023/01/14 04:39:24;;;;;;;1.07;0.80;;;;;;;;;;5084593;28;20233;-32
2023/01/14 04:44:36;;;;;;;2.27;1.00;;;;;;;;;;5088021;28;20689;-39
2023/01/14 04:47:03;;;;;;;0.67;0.67;;;;;;;;;;5098251;28;20207;-39
2023/01/14 04:49:30;;;;;;;1.10;0.80;;;;;;;;;;5091234;28;20205;-34
2023/01/14 04:51:57;;;;;;;1.03;0.97;;;;;;;;;;5081748;28;20228;-37
2023/01/14 04:54:26;;;;;;;1.63;0.63;;;;;;;;;;5098287;28;20307;-39
2023/01/14 04:56:53;;;;;;;0.87;0.87;;;;;;;;;;5102540;27;20292;-36
2023/01/14 04:59:20;;;;;;;1.20;0.90;;;;;;;;;;5091521;28;20202;-39
2023/01/14 05:01:47;;;;;;;2.97;2.07;;;;;;;;;;5093240;28;20220;-36
2023/01/14 05:04:14;;;;;;;1.70;0.77;;;;;;;;;;5114231;28;20200;-34
2023/01/14 05:06:41;;;;;;;2.20;0.87;;;;;;;;;;5084538;28;20209;-37
2023/01/14 05:09:08;;;;;;;2.30;0.90;;;;;;;;;;5090523;28;20208;-37
2023/01/14 05:11:37;;;;;;;2.50;0.80;;;;;;;;;;5093130;28;20216;-36
2023/01/14 05:14:04;;;;;;;1.87;0.83;;;;;;;;;;5093298;28;20220;-36
2023/01/14 05:16:31;;;;;;;1.13;1.00;;;;;;;;;;5099653;28;20213;-32
2023/01/14 05:18:58;;;;;;;2.77;0.60;;;;;;;;;;5097930;28;20546;-41
2023/01/14 05:21:25;;;;;;;0.90;0.80;;;;;;;;;;5077842;28;20306;-36
2023/01/14 05:23:52;;;;;;;1.83;1.03;;;;;;;;;;5079477;28;20204;-36
2023/01/14 05:26:20;;;;;;;1.60;0.90;;;;;;;;;;5102054;28;20197;-33
2023/01/14 05:28:48;;;;;;;1.10;1.00;;;;;;;;;;5102852;28;20199;-35
2023/01/14 05:31:15;;;;;;;3.50;1.10;;;;;;;;;;5093249;28;20216;-39
2023/01/14 05:33:42;;;;;;;2.50;1.10;;;;;;;;;;5111143;28;20200;-35
2023/01/14 05:36:10;;;;;;;4.00;0.73;;;;;;;;;;5088914;28;20215;-39
2023/01/14 05:38:37;;;;;;;2.53;1.17;;;;;;;;;;5089043;28;20218;-38
2023/01/14 05:41:04;;;;;;;2.30;0.50;;;;;;;;;;5104593;28;20310;-35
2023/01/14 05:46:19;;;;;;;3.00;0.97;;;;;;;;;;5088954;28;20204;-33
2023/01/14 05:48:46;;;;;;;3.40;1.23;;;;;;;;;;5101570;28;20211;-32
2023/01/14 05:51:13;;;;;;;0.77;0.63;;;;;;;;;;5083125;28;20218;-41
2023/01/14 05:53:40;;;;;;;2.05;0.95;;;;;;;;;;5092086;28;20204;-39
2023/01/14 05:56:08;;;;;;;1.30;0.80;;;;;;;;;;5108220;28;20578;-36
2023/01/14 05:58:35;;;;;;;3.80;1.13;;;;;;;;;;5088038;28;20201;-41
2023/01/14 06:06:36;;;;;;;3.23;1.10;;;;;;;;;;5083067;28;20211;-32
2023/01/14 06:09:04;;;;;;;0.93;0.73;;;;;;;;;;5087534;28;20201;-41
2023/01/14 06:11:32;;;;;;;3.80;1.23;;;;;;;;;;5101364;28;20225;-35
2023/01/14 06:14:00;;;;;;;2.47;1.00;;;;;;;;;;5087542;28;20201;-36
2023/01/14 06:16:28;;;;;;;1.97;1.00;;;;;;;;;;5091450;28;20215;-40
2023/01/14 06:18:57;;;;;;;1.33;0.83;;;;;;;;;;5092038;28;20207;-35
2023/01/14 06:21:25;;;;;;;1.40;1.00;;;;;;;;;;5078516;28;20239;-38
2023/01/14 06:23:52;;;;;;;2.90;1.10;;;;;;;;;;5078398;28;20212;-34
2023/01/14 06:26:19;;;;;;;2.30;1.23;;;;;;;;;;5098312;28;20200;-38
2023/01/14 06:28:47;;;;;;;2.80;1.00;;;;;;;;;;5083389;28;20209;-38
2023/01/14 06:31:14;;;;;;;0.80;0.80;;;;;;;;;;5089766;28;20220;-37
2023/01/14 06:33:42;;;;;;;1.57;1.30;;;;;;;;;;5097221;28;20209;-37
2023/01/14 06:36:11;;;;;;;3.47;1.50;;;;;;;;;;5085213;28;20224;-38
2023/01/14 06:38:39;;;;;;;2.90;1.33;;;;;;;;;;5093160;28;20214;-34
2023/01/14 06:41:07;;;;;;;2.20;1.53;;;;;;;;;;5101142;28;20293;-38
2023/01/14 06:43:34;;;;;;;2.77;1.30;;;;;;;;;;5082043;28;20213;-37
2023/01/14 06:46:01;;;;;;;5.77;1.33;;;;;;;;;;5081791;28;20204;-39
2023/01/14 06:48:29;;;;;;;3.57;1.70;;;;;;;;;;5097539;28;20201;-37
2023/01/14 06:50:56;;;;;;;1.90;1.43;;;;;;;;;;5089302;28;20219;-39
2023/01/14 06:53:24;;;;;;;2.87;1.20;;;;;;;;;;5084083;28;20216;-37
2023/01/14 06:55:52;;;;;;;1.90;1.30;;;;;;;;;;5090018;28;20224;-32
2023/01/14 06:58:19;;;;;;;1.37;1.23;;;;;;;;;;5099295;28;20200;-36
2023/01/14 07:00:46;;;;;;;4.97;3.00;;;;;;;;;;5092237;28;20207;-34
2023/01/14 07:03:13;;;;;;;4.37;2.07;;;;;;;;;;5103253;28;20206;-42
2023/01/14 07:05:40;;;;;;;2.00;1.63;;;;;;;;;;5089898;28;20204;-40
2023/01/14 07:08:07;;;;;;;1.50;1.30;;;;;;;;;;5084710;28;20211;-36
2023/01/14 07:10:36;;;;;;;3.63;2.20;;;;;;;;;;5097430;28;20225;-35
2023/01/14 07:13:03;;;;;;;3.43;1.57;;;;;;;;;;5107574;28;20231;-36
2023/01/14 07:15:30;;;;;;;3.23;1.80;;;;;;;;;;5083822;28;20220;-34
2023/01/14 07:17:57;;;;;;;2.27;1.70;;;;;;;;;;5104937;28;20208;-39
2023/01/14 07:20:24;;;;;;;3.80;1.50;;;;;;;;;;5086211;28;20217;-34
2023/01/14 07:22:51;;;;;;;4.00;1.83;;;;;;;;;;5085949;28;20220;-33
2023/01/14 07:25:19;;;;;;;2.63;1.50;;;;;;;;;;5101284;28;20196;-33
2023/01/14 07:27:47;;;;;;;5.47;1.83;;;;;;;;;;5095525;28;20196;-38
2023/01/14 07:30:14;;;;;;;3.03;1.70;;;;;;;;;;5088951;28;20203;-37
2023/01/14 07:32:42;;;;;;;3.77;1.70;;;;;;;;;;5099860;28;20242;-34
2023/01/14 07:35:09;;;;;;;1.30;1.20;;;;;;;;;;5117956;28;20220;-39
2023/01/14 07:37:36;;;;;;;2.83;1.90;;;;;;;;;;5091971;27;20205;-34
2023/01/14 07:40:04;;;;;;;2.73;1.87;;;;;;;;;;5105076;28;20207;-39
2023/01/14 07:42:31;;;;;;;2.83;1.97;;;;;;;;;;5100737;28;20590;-32
2023/01/14 07:44:59;;;;;;;6.23;2.20;;;;;;;;;;5100289;28;20208;-37
2023/01/14 07:47:26;;;;;;;4.73;3.37;;;;;;;;;;5103522;28;20393;-39
2023/01/14 07:49:53;;;;;;;11.03;5.77;;;;;;;;;;5086511;28;20200;-34
2023/01/14 07:52:21;;;;;;;10.67;6.50;;;;;;;;;;5090775;28;20240;-37
2023/01/14 07:54:48;;;;;;;9.33;6.07;;;;;;;;;;5095917;28;20229;-34
2023/01/14 07:57:15;;;;;;;8.93;4.97;;;;;;;;;;5092871;28;20214;-38
2023/01/14 07:59:42;;;;;;;10.40;5.67;;;;;;;;;;5092212;28;20212;-39
2023/01/14 08:02:12;;;;;;;10.60;4.73;;;;;;;;;;5093410;28;20227;-35
2023/01/14 08:04:40;;;;;;;7.37;3.90;;;;;;;;;;5094222;28;20193;-37
2023/01/14 08:07:07;;;;;;;5.97;4.00;;;;;;;;;;5094425;28;20266;-35
2023/01/14 08:09:35;;;;;;;5.87;3.50;;;;;;;;;;5087863;28;20215;-34
2023/01/14 08:12:02;;;;;;;10.37;4.30;;;;;;;;;;5091142;28;20224;-32
2023/01/14 08:14:30;;;;;;;4.30;3.30;;;;;;;;;;5089573;28;20215;-33
2023/01/14 08:16:57;;;;;;;4.17;2.77;;;;;;;;;;5100466;28;20201;-37
2023/01/14 08:19:25;;;;;;;4.87;2.63;;;;;;;;;;5094880;28;20205;-32
2023/01/14 08:21:52;;;;;;;5.07;2.87;;;;;;;;;;5087918;28;20589;-37
2023/01/14 08:24:20;;;;;;;4.73;2.60;;;;;;;;;;5086653;28;20207;-34
2023/01/14 08:26:47;;;;;;;6.00;3.20;;;;;;;;;;5095224;28;20712;-36
2023/01/14 08:29:17;;;;;;;6.73;2.73;;;;;;;;;;5090145;28;20211;-34
2023/01/14 08:31:44;;;;;;;2.77;2.10;;;;;;;;;;5094466;28;20246;-40
2023/01/14 08:34:13;;;;;;;4.33;2.47;;;;;;;;;;5098950;28;20224;-36
2023/01/14 08:36:41;;;;;;;4.43;2.73;;;;;;;;;;5090908;28;20256;-38
2023/01/14 08:39:10;;;;;;;3.13;2.60;;;;;;;;;;5088980;28;20207;-38
2023/01/14 08:41:37;;;;;;;6.47;2.93;;;;;;;;;;5094221;28;20220;-37
2023/01/14 08:44:05;;;;;;;5.87;3.00;;;;;;;;;;5089189;28;20212;-32
2023/01/14 08:46:32;;;;;;;3.50;2.57;;;;;;;;;;5093372;28;20203;-33
2023/01/14 08:48:59;;;;;;;4.60;2.57;;;;;;;;;;5107311;28;20208;-35
2023/01/14 08:51:28;;;;;;;5.57;3.60;;;;;;;;;;5105551;28;20225;-33
2023/01/14 08:53:57;;;;;;;5.63;2.90;;;;;;;;;;5091407;28;20199;-37
2023/01/14 08:56:24;;;;;;;7.00;2.97;;;;;;;;;;5096612;28;20231;-31
2023/01/14 08:58:51;;;;;;;7.37;3.37;;;;;;;;;;5089083;28;20208;-34
2023/01/14 09:01:18;;;;;;;7.33;4.00;;;;;;;;;;5096528;28;20216;-35
2023/01/14 09:03:46;;;;;;;8.37;3.87;;;;;;;;;;5102794;28;20201;-35
2023/01/14 09:06:14;;;;;;;8.90;4.10;;;;;;;;;;5082249;28;20255;-35
2023/01/14 09:17:09;;;;;;;5.90;3.37;;;;;;;;;;5092854;28;20231;-35
2023/01/14 09:19:38;;;;;;;7.33;3.40;;;;;;;;;;5103835;28;20196;-36
2023/01/14 09:22:05;;;;;;;7.33;3.50;;;;;;;;;;5085664;28;20225;-40
2023/01/14 09:24:32;;;;;;;8.73;3.33;;;;;;;;;;5105150;28;20229;-37
2023/01/14 09:27:01;;;;;;;7.17;2.97;;;;;;;;;;5102006;28;20200;-35
2023/01/14 09:29:28;;;;;;;6.20;3.13;;;;;;;;;;5083244;28;20216;-31
2023/01/14 09:31:55;;;;;;;6.73;3.20;;;;;;;;;;5098859;28;20225;-38
2023/01/14 09:34:22;;;;;;;8.17;3.73;;;;;;;;;;5103580;28;20208;-33
2023/01/14 09:36:50;;;;;;;8.13;3.13;;;;;;;;;;5115830;28;20223;-39
2023/01/14 09:39:17;;;;;;;4.43;2.60;;;;;;;;;;5115317;28;20257;-36
2023/01/14 09:41:49;;;;;;;7.50;3.27;;;;;;;;;;5080108;28;20226;-38
2023/01/14 09:44:18;;;;;;;3.73;2.77;;;;;;;;;;5086617;28;20211;-37
2023/01/14 09:46:45;;;;;;;5.83;3.73;;;;;;;;;;5093171;28;20201;-35
2023/01/14 09:49:15;;;;;;;5.43;3.13;;;;;;;;;;5097492;28;20468;-34
2023/01/14 09:51:52;;;;;;;9.07;4.00;;;;;;;;;;5085032;28;20323;-36
2023/01/14 09:54:21;;;;;;;7.33;3.57;;;;;;;;;;5092732;28;20219;-36
2023/01/14 09:56:52;;;;;;;4.77;2.93;;;;;;;;;;5085274;28;20216;-34
2023/01/14 09:59:24;;;;;;;9.23;3.60;;;;;;;;;;5084990;28;20200;-39
2023/01/14 10:01:57;;;;;;;5.63;3.27;;;;;;;;;;5102297;28;20222;-39
2023/01/14 10:04:30;;;;;;;8.80;3.30;;;;;;;;;;5114491;28;20242;-38
2023/01/14 10:06:58;;;;;;;6.60;3.30;;;;;;;;;;5079519;28;20205;-36
2023/01/14 10:09:28;;;;;;;7.83;3.07;;;;;;;;;;5089873;28;20215;-35
2023/01/14 10:11:56;;;;;;;7.40;4.00;;;;;;;;;;5092979;28;20227;-35
2023/01/14 10:14:27;;;;;;;12.47;5.00;;;;;;;;;;5078435;28;20201;-34
2023/01/14 10:16:56;;;;;;;10.13;4.57;;;;;;;;;;5105205;28;20254;-33
2023/01/14 10:19:29;;;;;;;5.27;3.70;;;;;;;;;;5091925;28;20224;-36
2023/01/14 10:21:59;;;;;;;11.80;4.93;;;;;;;;;;5076787;28;20224;-37
2023/01/14 10:24:27;;;;;;;10.13;3.87;;;;;;;;;;5096810;28;20196;-39
2023/01/14 10:26:54;;;;;;;9.13;3.67;;;;;;;;;;5092524;28;20208;-38
2023/01/14 10:29:22;;;;;;;13.10;3.90;;;;;;;;;;5078559;28;20201;-36
2023/01/14 10:31:53;;;;;;;7.70;4.27;;;;;;;;;;5078186;28;20224;-35
2023/01/14 10:34:25;;;;;;;6.53;3.40;;;;;;;;;;5100997;28;20188;-35
2023/01/14 10:36:52;;;;;;;7.43;4.40;;;;;;;;;;5078627;28;20209;-36
2023/01/14 10:39:19;;;;;;;7.63;3.73;;;;;;;;;;5088923;28;20196;-33
2023/01/14 10:41:49;;;;;;;7.83;4.37;;;;;;;;;;5104245;28;20231;-32
2023/01/14 10:44:18;;;;;;;12.17;4.50;;;;;;;;;;5083858;28;20217;-33
2023/01/14 10:46:46;;;;;;;9.63;4.30;;;;;;;;;;5096354;28;20193;-31
2023/01/14 10:49:17;;;;;;;10.07;4.07;;;;;;;;;;5107754;28;20204;-32
2023/01/14 10:51:49;;;;;;;6.47;3.83;;;;;;;;;;5113011;28;20228;-32
2023/01/14 10:54:17;;;;;;;6.30;3.47;;;;;;;;;;5097774;28;20221;-37
2023/01/14 10:56:46;;;;;;;7.80;3.80;;;;;;;;;;5087956;28;20231;-34
2023/01/14 10:59:34;;;;;;;5.90;3.23;;;;;;;;;;5081507;28;20205;-37
2023/01/14 11:02:02;;;;;;;8.43;4.30;;;;;;;;;;5087997;28;20674;-36
2023/01/14 11:04:33;;;;;;;8.27;3.90;;;;;;;;;;5108362;28;20219;-40
2023/01/14 11:07:07;;;;;;;10.37;4.20;;;;;;;;;;5097083;28;20208;-37
2023/01/14 11:09:37;;;;;;;4.30;3.40;;;;;;;;;;5086194;28;20211;-35
2023/01/14 11:12:06;;;;;;;8.47;4.07;;;;;;;;;;5087545;28;20229;-33
2023/01/14 11:14:39;;;;;;;8.23;4.50;;;;;;;;;;5083932;28;20212;-37
2023/01/14 11:17:22;;;;;;;7.97;4.90;;;;;;;;;;5100100;28;20211;-35
2023/01/14 11:19:50;;;;;;;10.57;5.17;;;;;;;;;;5091641;28;20204;-34
2023/01/14 11:22:18;;;;;;;8.23;5.20;;;;;;;;;;5085273;28;20230;-38
2023/01/14 11:24:46;;;;;;;9.60;5.47;;;;;;;;;;5078526;28;20209;-35
2023/01/14 11:27:15;;;;;;;10.90;6.03;;;;;;;;;;5099069;28;20215;-31
2023/01/14 11:29:48;;;;;;;11.70;4.73;;;;;;;;;;5084387;28;20208;-38
2023/01/14 11:32:16;;;;;;;9.23;5.33;;;;;;;;;;5086740;28;20227;-40
2023/01/14 11:34:48;;;;;;;12.00;5.10;;;;;;;;;;5091622;28;20200;-40
2023/01/14 11:37:18;;;;;;;7.10;4.17;;;;;;;;;;5072241;28;20226;-35
2023/01/14 11:39:50;;;;;;;5.03;1.50;;;;;;;;;;5086461;28;20204;-30
2023/01/14 11:42:30;;;;;;;1.63;0.70;;;;;;;;;;5091188;28;20246;-35
2023/01/14 11:44:58;;;;;;;1.47;0.80;;;;;;;;;;5086021;28;20207;-36
2023/01/14 11:47:26;;;;;;;2.67;1.13;;;;;;;;;;5088410;28;20201;-36
2023/01/14 11:50:10;;;;;;;1.23;1.00;;;;;;;;;;5091413;28;20616;-36
2023/01/14 11:52:39;;;;;;;1.00;0.60;;;;;;;;;;5085441;28;20229;-36
2023/01/14 11:55:13;;;;;;;0.93;0.77;;;;;;;;;;5102778;28;20204;-37
2023/01/14 11:57:42;;;;;;;2.10;0.70;;;;;;;;;;5114763;28;20226;-37
2023/01/14 12:00:10;;;;;;;2.33;0.70;;;;;;;;;;5089138;28;20571;-38
2023/01/14 12:02:40;;;;;;;1.57;0.70;;;;;;;;;;5113789;28;20224;-35
2023/01/14 12:05:12;;;;;;;1.00;0.90;;;;;;;;;;5116195;28;20208;-35
2023/01/14 12:07:43;;;;;;;1.87;0.50;;;;;;;;;;5100316;28;20201;-38
2023/01/14 12:10:15;;;;;;;0.97;0.77;;;;;;;;;;5091246;28;20201;-33
2023/01/14 12:18:24;;;;;;;1.80;0.90;;;;;;;;;;5099610;28;20215;-38
2023/01/14 12:20:52;;;;;;;1.27;1.00;;;;;;;;;;5094835;28;20209;-38
2023/01/14 12:23:22;;;;;;;2.80;1.00;;;;;;;;;;5079830;28;20201;-32
2023/01/14 12:25:51;;;;;;;5.67;1.00;;;;;;;;;;5094955;28;20207;-31
2023/01/14 12:28:21;;;;;;;3.17;1.20;;;;;;;;;;5088384;28;20235;-33
2023/01/14 12:30:50;;;;;;;0.80;0.80;;;;;;;;;;5092157;28;20211;-39
2023/01/14 12:33:23;;;;;;;5.07;1.30;;;;;;;;;;5106203;28;20203;-39
2023/01/14 12:35:52;;;;;;;1.43;1.13;;;;;;;;;;5095944;28;20197;-42
2023/01/14 12:46:46;;;;;;;3.43;1.40;;;;;;;;;;5097929;28;20311;-35
2023/01/14 12:49:18;;;;;;;4.23;1.23;;;;;;;;;;5106133;28;20200;-35
2023/01/14 12:51:47;;;;;;;1.67;1.33;;;;;;;;;;5092426;28;20229;-39
2023/01/14 12:54:23;;;;;;;2.47;1.10;;;;;;;;;;5090143;28;20208;-38
2023/01/14 12:56:52;;;;;;;4.63;1.00;;;;;;;;;;5083539;28;20214;-34
2023/01/14 12:59:24;;;;;;;6.17;1.30;;;;;;;;;;5077068;27;20201;-35
2023/01/14 13:01:57;;;;;;;4.43;1.30;;;;;;;;;;5090675;28;20216;-34
2023/01/14 13:04:26;;;;;;;2.80;1.07;;;;;;;;;;5094239;28;20193;-37
2023/01/14 13:06:54;;;;;;;4.80;2.00;;;;;;;;;;5093598;28;20201;-37
2023/01/14 13:09:25;;;;;;;2.47;1.10;;;;;;;;;;5084317;28;20216;-35
2023/01/14 13:11:53;;;;;;;3.70;1.40;;;;;;;;;;5099504;28;20527;-35
2023/01/14 13:14:33;;;;;;;2.70;1.00;;;;;;;;;;5087924;28;20220;-37
2023/01/14 13:17:01;;;;;;;1.77;1.00;;;;;;;;;;5100832;28;20218;-37
2023/01/14 13:19:36;;;;;;;2.07;0.80;;;;;;;;;;5096181;28;20200;-35
2023/01/14 13:22:04;;;;;;;1.83;1.20;;;;;;;;;;5101161;28;20310;-34
2023/01/14 13:24:36;;;;;;;1.40;0.90;;;;;;;;;;5076017;28;20205;-34
2023/01/14 13:27:06;;;;;;;2.33;0.87;;;;;;;;;;5080146;28;20197;-34
2023/01/14 13:29:33;;;;;;;1.80;0.97;;;;;;;;;;5088645;28;20226;-32
2023/01/14 13:32:01;;;;;;;3.23;0.90;;;;;;;;;;5092845;28;20237;-33
2023/01/14 13:34:35;;;;;;;4.43;1.10;;;;;;;;;;5097060;28;20200;-39
2023/01/14 13:37:17;;;;;;;1.87;0.70;;;;;;;;;;5083560;28;20220;-33
2023/01/14 13:39:49;;;;;;;2.00;1.03;;;;;;;;;;5094133;28;20207;-30
2023/01/14 13:42:18;;;;;;;3.83;1.37;;;;;;;;;;5089884;28;20220;-35
2023/01/14 13:44:48;;;;;;;3.27;1.33;;;;;;;;;;5085218;28;20208;-38
2023/01/14 13:47:19;;;;;;;4.07;1.47;;;;;;;;;;5091783;28;20204;-38
2023/01/14 13:49:53;;;;;;;2.43;1.00;;;;;;;;;;5072810;28;20220;-31
2023/01/14 13:52:23;;;;;;;3.80;1.10;;;;;;;;;;5071603;28;20232;-36
2023/01/14 13:54:55;;;;;;;2.53;1.53;;;;;;;;;;5099926;28;20209;-34
2023/01/14 13:57:27;;;;;;;1.50;1.23;;;;;;;;;;5093441;28;20228;-37
2023/01/14 13:59:55;;;;;;;2.57;1.10;;;;;;;;;;5078994;28;20201;-35
2023/01/14 14:02:41;;;;;;;2.00;0.90;;;;;;;;;;5092751;28;20304;-35
2023/01/14 14:05:20;;;;;;;1.70;1.00;;;;;;;;;;5098217;28;20585;-31
2023/01/14 14:08:05;;;;;;;2.90;0.80;;;;;;;;;;5086757;28;20200;-36
2023/01/14 14:10:35;;;;;;;2.63;0.83;;;;;;;;;;5102189;28;20204;-40
2023/01/14 14:15:51;;;;;;;2.17;1.10;;;;;;;;;;5093103;28;20278;-35
2023/01/14 14:18:24;;;;;;;2.17;1.17;;;;;;;;;;5095581;28;20220;-35
2023/01/14 14:20:52;;;;;;;2.13;1.30;;;;;;;;;;5081198;28;20196;-38
2023/01/14 14:23:21;;;;;;;2.20;0.90;;;;;;;;;;5089929;28;20208;-36
2023/01/14 14:25:50;;;;;;;3.57;1.50;;;;;;;;;;5084230;28;20196;-35
2023/01/14 14:28:20;;;;;;;3.37;1.43;;;;;;;;;;5098472;28;20204;-35
2023/01/14 14:30:50;;;;;;;4.37;1.37;;;;;;;;;;5083936;28;20230;-34
2023/01/14 14:33:33;;;;;;;3.13;1.17;;;;;;;;;;5112237;28;20200;-35
2023/01/14 14:36:01;;;;;;;2.67;1.30;;;;;;;;;;5072784;28;20303;-38
2023/01/14 14:38:29;;;;;;;1.87;0.90;;;;;;;;;;5079596;28;20224;-34
2023/01/14 14:40:57;;;;;;;2.73;1.00;;;;;;;;;;5103676;28;20219;-32
2023/01/14 14:43:25;;;;;;;2.70;1.23;;;;;;;;;;5101047;28;20209;-35
2023/01/14 14:46:00;;;;;;;1.37;1.20;;;;;;;;;;5084428;28;20205;-36
2023/01/14 14:48:28;;;;;;;4.80;1.27;;;;;;;;;;5098050;28;20195;-37
2023/01/14 14:50:55;;;;;;;2.20;1.20;;;;;;;;;;5090190;28;20220;-41
2023/01/14 14:53:30;;;;;;;5.43;1.43;;;;;;;;;;5081603;28;20217;-37
2023/01/14 14:56:00;;;;;;;3.50;0.93;;;;;;;;;;5091310;28;20196;-38
2023/01/14 14:58:28;;;;;;;4.67;1.30;;;;;;;;;;5095733;28;20236;-38
2023/01/14 15:00:56;;;;;;;2.87;1.10;;;;;;;;;;5088566;28;20218;-35
2023/01/14 15:03:24;;;;;;;4.30;1.43;;;;;;;;;;5104466;28;20204;-40
2023/01/14 15:05:52;;;;;;;2.27;1.37;;;;;;;;;;5096168;28;20204;-34
2023/01/14 15:08:23;;;;;;;2.50;1.33;;;;;;;;;;5085637;28;20596;-35
2023/01/14 15:10:50;;;;;;;3.73;1.40;;;;;;;;;;5092311;28;20224;-33
2023/01/14 15:13:26;;;;;;;3.30;1.57;;;;;;;;;;5086924;28;20203;-35
2023/01/14 15:16:03;;;;;;;1.33;1.10;;;;;;;;;;5084635;28;20200;-35
2023/01/14 15:18:33;;;;;;;2.97;2.07;;;;;;;;;;5089870;28;20273;-37
2023/01/14 15:21:00;;;;;;;2.03;1.57;;;;;;;;;;5087050;28;20228;-30
2023/01/14 15:23:27;;;;;;;2.40;0.97;;;;;;;;;;5085266;28;20208;-37
2023/01/14 15:25:55;;;;;;;0.80;0.80;;;;;;;;;;5100419;28;20302;-34
2023/01/14 15:28:24;;;;;;;2.13;1.10;;;;;;;;;;5085323;28;20197;-36
2023/01/14 15:30:56;;;;;;;2.37;1.00;;;;;;;;;;5086845;28;20200;-37
2023/01/14 15:33:27;;;;;;;1.63;1.27;;;;;;;;;;5109639;28;20249;-35
2023/01/14 15:35:59;;;;;;;2.10;1.23;;;;;;;;;;5116595;28;20204;-37
2023/01/14 15:38:26;;;;;;;1.60;1.50;;;;;;;;;;5095807;28;20222;-33
2023/01/14 15:40:54;;;;;;;1.20;1.10;;;;;;;;;;5097938;28;20256;-31